Time;durP1;ratioP1;P1;durP2;ratioP2;P2;SDS_P1;SDS_P2;PMS_P1;PMS_P2;Temp;Humidity;BMP_temperature;BMP_pressure;BME280_temperature;BME280_humidity;BME280_pressure;Samples;Min_cycle;Max_cycle;Signal;HPM_P1;HPM_P2
2023/07/23 00:02:14;;;;;;;10.18;7.72;;;;;;;12.17;60.81;100884.47;4938355;28;20046;-69
2023/07/23 00:04:40;;;;;;;12.43;7.63;;;;;;;12.25;60.53;100882.34;4938453;28;20034;-70
2023/07/23 00:07:05;;;;;;;11.85;6.43;;;;;;;12.34;60.29;100877.63;4943241;28;20110;-70
2023/07/23 00:09:31;;;;;;;9.65;6.95;;;;;;;12.44;59.59;100873.63;4942553;28;20540;-73
2023/07/23 00:11:56;;;;;;;9.98;7.07;;;;;;;12.49;59.80;100867.25;4941084;28;20031;-72
2023/07/23 00:14:22;;;;;;;9.75;6.82;;;;;;;12.46;59.75;100866.53;4929487;28;20138;-70
2023/07/23 00:16:47;;;;;;;12.90;7.97;;;;;;;12.50;59.50;100870.72;4951924;28;21165;-71
2023/07/23 00:19:19;;;;;;;9.77;6.53;;;;;;;12.50;59.62;100865.47;4971419;28;20045;-73
2023/07/23 00:21:47;;;;;;;10.63;7.30;;;;;;;12.51;59.60;100859.28;4948192;28;20034;-73
2023/07/23 00:24:14;;;;;;;12.73;7.07;;;;;;;12.54;59.37;100843.44;4947937;28;20413;-70
2023/07/23 00:26:40;;;;;;;12.20;6.72;;;;;;;12.45;59.71;100843.88;4955391;28;20085;-73
2023/07/23 00:29:05;;;;;;;14.80;7.72;;;;;;;12.53;59.70;100841.72;4968535;28;20035;-72
2023/07/23 00:31:30;;;;;;;11.48;7.50;;;;;;;12.40;59.79;100832.75;4965379;28;20069;-72
2023/07/23 00:33:56;;;;;;;10.93;6.70;;;;;;;12.36;60.05;100825.97;4952355;28;20454;-71
2023/07/23 00:36:21;;;;;;;10.02;8.20;;;;;;;12.43;59.78;100830.00;4948919;28;20035;-72
2023/07/23 00:38:49;;;;;;;13.80;8.00;;;;;;;12.32;59.97;100824.41;4961428;28;20592;-67
2023/07/23 00:41:23;;;;;;;11.15;7.68;;;;;;;11.94;60.93;100816.59;4970013;28;20031;-68
2023/07/23 00:43:49;;;;;;;11.55;6.60;;;;;;;12.17;60.74;100824.22;4939022;28;20193;-68
2023/07/23 00:46:14;;;;;;;13.30;7.10;;;;;;;12.35;60.03;100816.41;4961048;28;20489;-68
2023/07/23 00:48:40;;;;;;;13.00;6.57;;;;;;;12.38;59.75;100808.38;4959336;28;20046;-68
2023/07/23 00:51:06;;;;;;;11.73;7.45;;;;;;;12.09;61.00;100805.41;4966480;28;20077;-67
2023/07/23 00:53:31;;;;;;;12.13;7.68;;;;;;;12.21;60.61;100799.56;4954975;28;20489;-67
2023/07/23 00:55:59;;;;;;;13.05;7.10;;;;;;;12.20;60.21;100802.25;4929660;28;20051;-68
2023/07/23 00:58:24;;;;;;;12.25;7.10;;;;;;;12.16;60.55;100808.59;4957251;28;20057;-67
2023/07/23 01:00:50;;;;;;;11.73;7.40;;;;;;;12.12;60.83;100807.88;4964306;28;20034;-67
2023/07/23 01:03:16;;;;;;;14.05;7.28;;;;;;;12.02;60.64;100797.00;4965240;28;20038;-67
2023/07/23 01:05:44;;;;;;;12.82;6.93;;;;;;;11.68;61.94;100793.28;4965042;28;20057;-68
2023/07/23 01:08:11;;;;;;;15.05;6.65;;;;;;;11.63;62.31;100795.25;4970968;28;20034;-67
2023/07/23 01:10:37;;;;;;;8.25;5.35;;;;;;;11.19;62.54;100794.63;4967650;28;20034;-66
2023/07/23 01:13:06;;;;;;;10.02;5.55;;;;;;;11.29;63.40;100798.56;4973524;28;20590;-73
2023/07/23 01:15:34;;;;;;;8.43;5.30;;;;;;;11.72;61.88;100785.28;4969346;28;20045;-73
2023/07/23 01:18:01;;;;;;;9.70;4.38;;;;;;;11.79;61.66;100787.56;4986717;28;20026;-73
2023/07/23 01:20:27;;;;;;;9.73;4.60;;;;;;;11.63;61.92;100782.16;4972718;28;20030;-73
2023/07/23 01:22:53;;;;;;;11.02;5.75;;;;;;;11.46;62.60;100777.72;4967353;28;20131;-70
2023/07/23 01:25:18;;;;;;;7.63;4.80;;;;;;;11.54;62.10;100776.53;4971682;28;20034;-72
2023/07/23 01:27:44;;;;;;;8.50;5.43;;;;;;;11.68;61.98;100780.19;4970624;28;20049;-74
2023/07/23 01:30:10;;;;;;;9.95;4.82;;;;;;;11.97;61.01;100770.16;4972613;28;20290;-73
2023/07/23 01:32:37;;;;;;;14.15;5.18;;;;;;;11.91;61.14;100772.22;4969932;28;20081;-73
2023/07/23 01:35:08;;;;;;;7.47;4.30;;;;;;;12.09;60.81;100763.50;4971327;28;20042;-74
2023/07/23 01:37:34;;;;;;;;;;;;;;;11.62;61.79;100764.78;4954274;28;21185;-70
2023/07/23 01:40:00;;;;;;;6.88;4.25;;;;;;;11.39;63.03;100768.41;4960579;28;19969;-69
2023/07/23 01:42:26;;;;;;;7.43;4.68;;;;;;;11.44;62.58;100749.91;4968512;28;20034;-69
2023/07/23 01:44:52;;;;;;;9.65;4.68;;;;;;;11.52;62.21;100755.63;4967172;28;20046;-69
2023/07/23 01:47:17;;;;;;;7.45;5.15;;;;;;;11.73;61.30;100751.19;4966702;28;20043;-70
2023/07/23 01:49:43;;;;;;;5.28;3.35;;;;;;;11.18;63.15;100761.56;4967737;28;20034;-69
2023/07/23 01:52:10;;;;;;;8.27;3.25;;;;;;;11.55;62.35;100747.63;4967074;28;20046;-69
2023/07/23 01:54:36;;;;;;;8.38;4.68;;;;;;;11.35;62.68;100739.84;4964898;28;20027;-70
2023/07/23 01:57:03;;;;;;;7.72;3.50;;;;;;;11.31;62.91;100744.38;4968637;28;20453;-70
2023/07/23 01:59:28;;;;;;;8.05;3.85;;;;;;;11.73;61.51;100745.97;4967964;28;20062;-69
2023/07/23 02:01:54;;;;;;;12.02;4.70;;;;;;;11.60;62.33;100734.34;4964975;28;20408;-72
2023/07/23 02:04:19;;;;;;;8.55;5.20;;;;;;;11.81;61.38;100732.53;4950614;28;20486;-71
2023/07/23 02:06:45;;;;;;;6.90;4.55;;;;;;;11.57;62.54;100729.25;4936596;28;20247;-72
2023/07/23 02:09:10;;;;;;;7.75;4.95;;;;;;;11.78;61.75;100725.66;4949198;28;20110;-70
2023/07/23 02:11:36;;;;;;;5.53;3.83;;;;;;;11.84;61.82;100727.13;4946665;28;20064;-71
2023/07/23 02:14:02;;;;;;;7.15;4.35;;;;;;;11.79;61.53;100714.25;4949048;28;20031;-70
2023/07/23 02:16:27;;;;;;;5.63;3.78;;;;;;;11.78;61.72;100712.56;4941735;28;20406;-71
2023/07/23 02:18:53;;;;;;;6.85;4.45;;;;;;;11.78;61.87;100709.13;4976655;28;20042;-70
2023/07/23 02:21:18;;;;;;;5.72;3.88;;;;;;;11.64;62.33;100704.47;4952033;28;20543;-71
2023/07/23 02:23:45;;;;;;;6.63;4.00;;;;;;;11.72;61.74;100704.97;4948974;28;20047;-70
2023/07/23 02:26:10;;;;;;;5.93;3.70;;;;;;;11.70;61.97;100692.88;4968216;28;20151;-70
2023/07/23 02:28:40;;;;;;;4.55;3.10;;;;;;;11.85;61.42;100698.25;4944708;28;20037;-70
2023/07/23 02:31:06;;;;;;;4.85;3.13;;;;;;;11.90;61.45;100695.41;4951751;28;20034;-71
2023/07/23 02:33:31;;;;;;;5.22;3.58;;;;;;;11.86;61.40;100694.69;4949961;28;20046;-70
2023/07/23 02:35:57;;;;;;;5.20;3.45;;;;;;;11.99;61.25;100689.72;4948862;28;20035;-70
2023/07/23 02:38:23;;;;;;;5.57;3.50;;;;;;;11.89;61.72;100688.50;4949562;28;20093;-69
2023/07/23 02:40:48;;;;;;;4.95;2.33;;;;;;;11.80;61.56;100684.56;4950571;28;20166;-69
2023/07/23 02:43:14;;;;;;;3.88;2.92;;;;;;;11.56;62.89;100685.69;4936029;28;20229;-69
2023/07/23 02:45:39;;;;;;;4.35;3.22;;;;;;;11.65;62.42;100680.00;4960294;28;20038;-69
2023/07/23 02:48:06;;;;;;;3.85;2.60;;;;;;;11.80;62.04;100671.47;4936664;28;20138;-70
2023/07/23 02:50:31;;;;;;;4.72;2.60;;;;;;;11.70;62.13;100667.53;4949017;28;20073;-69
2023/07/23 02:52:56;;;;;;;4.65;2.78;;;;;;;11.80;61.96;100671.47;4945658;28;20066;-69
2023/07/23 02:55:25;;;;;;;3.85;2.40;;;;;;;11.90;61.88;100668.38;4951346;28;20136;-70
2023/07/23 02:57:51;;;;;;;4.88;2.58;;;;;;;11.67;62.50;100668.53;4946396;28;20575;-68
2023/07/23 03:00:20;;;;;;;3.28;2.38;;;;;;;11.81;62.02;100661.81;4948115;28;20026;-69
2023/07/23 03:02:47;;;;;;;3.85;2.75;;;;;;;11.79;62.03;100661.88;4943660;28;20069;-70
2023/07/23 03:05:13;;;;;;;3.78;2.00;;;;;;;11.41;63.15;100656.69;4945472;28;20067;-69
2023/07/23 03:07:39;;;;;;;4.53;1.98;;;;;;;11.52;62.98;100653.56;4947959;28;20031;-69
2023/07/23 03:10:08;;;;;;;3.92;2.20;;;;;;;11.76;62.30;100645.47;4934827;28;20622;-71
2023/07/23 03:12:33;;;;;;;3.17;1.88;;;;;;;11.37;63.22;100639.41;4951504;28;20042;-71
2023/07/23 03:14:59;;;;;;;3.97;1.92;;;;;;;11.58;62.82;100637.56;4970349;28;20049;-72
2023/07/23 03:17:25;;;;;;;4.32;2.17;;;;;;;11.84;62.13;100640.72;4967119;28;20074;-68
2023/07/23 03:19:52;;;;;;;5.00;2.35;;;;;;;11.61;63.01;100641.81;4950809;28;20406;-70
2023/07/23 03:22:18;;;;;;;3.17;2.08;;;;;;;11.27;63.93;100638.19;4965452;28;20571;-71
2023/07/23 03:24:44;;;;;;;4.13;2.13;;;;;;;11.61;62.96;100626.09;4961982;28;20045;-71
2023/07/23 03:27:10;;;;;;;3.85;1.73;;;;;;;11.79;62.38;100633.09;4945808;28;20537;-73
2023/07/23 03:29:35;;;;;;;3.72;1.85;;;;;;;11.74;62.34;100627.19;4946138;28;20034;-69
2023/07/23 03:32:01;;;;;;;3.25;2.08;;;;;;;11.21;64.14;100620.13;4947456;28;20041;-69
2023/07/23 03:34:26;;;;;;;2.78;2.25;;;;;;;11.37;63.89;100626.34;4967913;28;20030;-70
2023/07/23 03:36:51;;;;;;;3.08;1.98;;;;;;;11.56;62.77;100621.09;4963289;28;20465;-69
2023/07/23 03:39:18;;;;;;;4.97;1.88;;;;;;;11.40;63.45;100623.59;4953100;28;20078;-70
2023/07/23 03:41:45;;;;;;;3.53;1.70;;;;;;;11.02;64.67;100615.78;4948717;28;20112;-70
2023/07/23 03:44:10;;;;;;;2.55;2.00;;;;;;;11.25;64.39;100626.94;4947846;28;20054;-70
2023/07/23 03:46:47;;;;;;;3.28;1.70;;;;;;;11.74;62.99;100621.13;4966520;28;20030;-70
2023/07/23 03:49:13;;;;;;;3.22;1.88;;;;;;;11.64;63.02;100616.34;4964165;28;20065;-69
2023/07/23 03:51:38;;;;;;;4.03;2.15;;;;;;;11.66;63.17;100613.63;4967760;28;20066;-70
2023/07/23 03:54:04;;;;;;;4.50;1.98;;;;;;;11.83;62.31;100620.69;4966687;28;20034;-70
2023/07/23 03:56:29;;;;;;;6.63;2.55;;;;;;;11.27;63.46;100606.78;4957050;28;20300;-70
2023/07/23 03:58:54;;;;;;;6.30;2.30;;;;;;;11.80;62.36;100616.47;4965666;28;20490;-70
2023/07/23 04:01:20;;;;;;;4.38;1.90;;;;;;;11.38;63.72;100614.97;4967054;28;20501;-71
2023/07/23 04:03:45;;;;;;;5.32;2.30;;;;;;;11.87;62.50;100607.38;4965739;28;20575;-70
2023/07/23 04:06:11;;;;;;;4.68;2.88;;;;;;;11.59;62.86;100607.00;4952303;28;20568;-68
2023/07/23 04:08:36;;;;;;;5.13;2.75;;;;;;;11.94;62.04;100601.84;4962907;28;20043;-68
2023/07/23 04:11:02;;;;;;;4.93;2.70;;;;;;;11.95;61.61;100606.13;4966178;28;20018;-69
2023/07/23 04:13:27;;;;;;;6.30;2.35;;;;;;;11.82;62.43;100601.53;4950831;28;20038;-68
2023/07/23 04:15:53;;;;;;;6.15;2.33;;;;;;;11.97;61.67;100601.69;4946143;28;20044;-68
2023/07/23 04:18:18;;;;;;;4.22;2.85;;;;;;;11.98;61.92;100592.91;4941941;28;20051;-67
2023/07/23 04:20:44;;;;;;;3.85;3.00;;;;;;;11.91;62.17;100600.22;4946713;28;20042;-68
2023/07/23 04:23:10;;;;;;;12.30;2.88;;;;;;;11.84;62.39;100591.84;4958336;28;20042;-70
2023/07/23 04:25:35;;;;;;;6.93;3.28;;;;;;;12.03;61.81;100596.97;4963752;28;20489;-70
2023/07/23 04:28:01;;;;;;;5.43;3.22;;;;;;;11.70;62.45;100599.47;4966048;28;20042;-70
2023/07/23 04:30:30;;;;;;;5.30;3.20;;;;;;;11.87;62.42;100593.44;4965509;28;20158;-71
2023/07/23 04:32:55;;;;;;;6.43;2.85;;;;;;;11.91;61.87;100591.50;4963325;28;20501;-70
2023/07/23 04:35:21;;;;;;;6.18;3.22;;;;;;;11.93;62.03;100587.88;4967941;28;20139;-70
2023/07/23 04:37:46;;;;;;;5.85;2.97;;;;;;;11.97;61.89;100593.81;4964869;28;20038;-73
2023/07/23 04:40:12;;;;;;;5.50;3.42;;;;;;;11.88;61.99;100582.88;4969613;28;20128;-68
2023/07/23 04:42:38;;;;;;;6.53;3.92;;;;;;;11.95;61.80;100590.44;4966845;28;20133;-69
2023/07/23 04:45:04;;;;;;;5.95;3.45;;;;;;;11.93;62.10;100581.81;4974087;28;20508;-73
2023/07/23 04:47:29;;;;;;;7.68;3.55;;;;;;;12.14;61.62;100578.09;4971335;28;20066;-74
2023/07/23 04:49:56;;;;;;;8.38;3.67;;;;;;;12.12;61.30;100573.88;4968994;28;20060;-73
2023/07/23 04:52:22;;;;;;;10.23;4.88;;;;;;;11.93;61.73;100577.41;4971303;28;20045;-71
2023/07/23 04:54:47;;;;;;;7.70;3.90;;;;;;;11.74;62.06;100574.84;4957091;28;20976;-73
2023/07/23 04:57:13;;;;;;;5.45;3.53;;;;;;;11.98;61.59;100561.47;4966572;28;20038;-71
2023/07/23 04:59:38;;;;;;;7.28;4.32;;;;;;;11.92;61.63;100572.25;4963758;28;20089;-70
2023/07/23 05:02:04;;;;;;;7.68;4.15;;;;;;;12.07;61.31;100563.63;4967981;28;20124;-69
2023/07/23 05:04:29;;;;;;;5.82;3.53;;;;;;;12.17;61.02;100559.59;4969772;28;20101;-73
2023/07/23 05:06:55;;;;;;;8.05;3.65;;;;;;;11.96;61.72;100568.56;4955417;28;20076;-73
2023/07/23 05:09:20;;;;;;;8.85;3.92;;;;;;;12.13;61.02;100563.28;4970251;28;20224;-73
2023/07/23 05:11:46;;;;;;;6.18;3.60;;;;;;;12.16;60.80;100552.66;4971335;28;20034;-75
2023/07/23 05:14:11;;;;;;;6.28;3.40;;;;;;;12.06;61.28;100549.66;4950851;28;20298;-75
2023/07/23 05:16:37;;;;;;;4.53;3.03;;;;;;;11.89;61.60;100557.56;4952000;28;20050;-75
2023/07/23 05:19:03;;;;;;;6.10;3.60;;;;;;;12.08;61.28;100549.59;4944384;28;20310;-73
2023/07/23 05:21:29;;;;;;;6.88;3.65;;;;;;;12.11;61.28;100549.44;4938224;28;20035;-74
2023/07/23 05:23:54;;;;;;;7.47;4.32;;;;;;;12.15;61.14;100548.34;4941846;28;20502;-74
2023/07/23 05:26:19;;;;;;;9.70;3.58;;;;;;;12.07;61.15;100551.38;4939944;28;20063;-74
2023/07/23 05:28:45;;;;;;;8.77;3.63;;;;;;;12.15;61.03;100543.09;4963637;28;20043;-74
2023/07/23 05:31:10;;;;;;;5.40;3.28;;;;;;;12.05;61.67;100547.13;4968974;28;20038;-69
2023/07/23 05:33:36;;;;;;;8.45;3.92;;;;;;;11.80;61.99;100543.16;4966840;28;20049;-71
2023/07/23 05:36:02;;;;;;;11.75;3.42;;;;;;;11.61;62.38;100537.09;4970998;28;20027;-71
2023/07/23 05:38:27;;;;;;;6.38;4.13;;;;;;;11.50;62.77;100540.25;4942046;28;20162;-72
2023/07/23 05:40:57;;;;;;;7.15;4.28;;;;;;;11.64;62.73;100531.69;4950847;28;20043;-73
2023/07/23 05:43:23;;;;;;;8.43;4.15;;;;;;;11.80;62.07;100537.06;4949099;28;20473;-75
2023/07/23 05:45:48;;;;;;;6.80;4.72;;;;;;;11.71;62.30;100527.88;4952721;28;20125;-71
2023/07/23 05:48:14;;;;;;;7.18;3.72;;;;;;;11.81;62.32;100521.25;4941647;28;20047;-71
2023/07/23 05:50:40;;;;;;;7.82;3.97;;;;;;;11.75;62.40;100524.16;4948122;28;20035;-68
2023/07/23 05:53:05;;;;;;;8.00;4.30;;;;;;;12.06;61.56;100525.25;4946260;28;20042;-70
2023/07/23 05:55:31;;;;;;;10.85;4.75;;;;;;;12.06;61.63;100520.00;4948145;28;20591;-69
2023/07/23 05:57:56;;;;;;;7.18;4.28;;;;;;;11.98;61.38;100522.19;4958533;28;20436;-70
2023/07/23 06:00:23;;;;;;;12.13;4.95;;;;;;;11.85;62.00;100514.94;4964017;28;21189;-70
2023/07/23 06:02:48;;;;;;;8.50;4.15;;;;;;;11.99;61.71;100521.25;4968497;28;20570;-71
2023/07/23 06:05:14;;;;;;;6.75;3.70;;;;;;;12.16;61.68;100513.38;4967467;28;20041;-70
2023/07/23 06:07:40;;;;;;;8.13;4.47;;;;;;;11.99;61.62;100505.53;4964569;28;20057;-71
2023/07/23 06:10:06;;;;;;;10.60;5.15;;;;;;;12.15;61.46;100511.66;4968767;28;20041;-71
2023/07/23 06:12:33;;;;;;;5.50;4.72;;;;;;;12.11;61.69;100504.91;4950963;28;20034;-71
2023/07/23 06:14:59;;;;;;;8.63;4.07;;;;;;;12.06;61.60;100509.53;4953251;28;20030;-71
2023/07/23 06:17:24;;;;;;;8.80;5.20;;;;;;;12.07;62.13;100513.84;4962045;28;20034;-70
2023/07/23 06:19:50;;;;;;;8.25;4.70;;;;;;;12.12;61.50;100514.47;4950249;28;20030;-71
2023/07/23 06:22:15;;;;;;;5.88;4.10;;;;;;;12.10;61.60;100508.44;4931754;28;20039;-71
2023/07/23 06:24:41;;;;;;;8.02;4.38;;;;;;;12.28;60.89;100502.22;4937021;28;20459;-71
2023/07/23 06:27:07;;;;;;;7.32;4.28;;;;;;;12.01;61.74;100503.69;4948945;28;20664;-70
2023/07/23 06:29:33;;;;;;;9.68;4.43;;;;;;;12.09;61.97;100506.78;4951468;28;20090;-71
2023/07/23 06:31:58;;;;;;;7.60;4.65;;;;;;;12.07;62.07;100503.38;4949925;28;20037;-70
2023/07/23 06:34:24;;;;;;;6.45;4.28;;;;;;;12.04;61.96;100504.38;4946869;28;22030;-70
2023/07/23 06:36:50;;;;;;;7.00;4.78;;;;;;;12.27;60.89;100505.78;4945486;28;20031;-69
2023/07/23 06:39:15;;;;;;;9.10;4.38;;;;;;;12.26;61.36;100500.63;4947146;28;20035;-70
2023/07/23 06:41:41;;;;;;;8.98;4.85;;;;;;;12.25;61.51;100496.31;4951588;28;20101;-71
2023/07/23 06:44:07;;;;;;;12.05;5.38;;;;;;;12.19;61.22;100494.84;4958967;28;21023;-70
2023/07/23 06:46:35;;;;;;;9.88;5.50;;;;;;;12.26;61.40;100488.34;4967652;28;20044;-69
2023/07/23 06:49:01;;;;;;;8.70;4.53;;;;;;;12.19;61.48;100476.53;4962556;28;20229;-71
2023/07/23 06:51:26;;;;;;;9.68;5.50;;;;;;;12.23;61.64;100467.56;4965197;28;20097;-71
2023/07/23 06:53:52;;;;;;;9.70;4.20;;;;;;;12.36;61.40;100477.41;4941917;28;21112;-71
2023/07/23 06:56:20;;;;;;;11.73;4.70;;;;;;;12.39;61.21;100472.00;4945239;28;20588;-72
2023/07/23 06:58:51;;;;;;;12.98;4.45;;;;;;;12.28;61.76;100476.03;4948493;28;20547;-72
2023/07/23 07:01:16;;;;;;;8.27;4.40;;;;;;;12.47;61.29;100475.91;4938557;28;20122;-71
2023/07/23 07:03:42;;;;;;;9.45;4.90;;;;;;;12.53;61.13;100476.47;4942404;28;20695;-70
2023/07/23 07:06:10;;;;;;;9.35;4.70;;;;;;;12.68;60.80;100479.09;4945756;28;20038;-70
2023/07/23 07:08:35;;;;;;;10.27;5.47;;;;;;;12.60;60.86;100476.09;4948557;28;20069;-70
2023/07/23 07:11:09;;;;;;;8.30;5.22;;;;;;;12.40;61.24;100468.44;4969251;28;20108;-70
2023/07/23 07:13:38;;;;;;;8.95;4.15;;;;;;;12.41;61.36;100462.28;4956108;28;20420;-70
2023/07/23 07:16:04;;;;;;;12.32;5.43;;;;;;;12.55;61.14;100462.34;4966290;28;20074;-70
2023/07/23 07:18:29;;;;;;;10.30;5.18;;;;;;;12.79;60.44;100462.81;4940510;28;20090;-70
2023/07/23 07:21:02;;;;;;;11.18;4.75;;;;;;;12.68;60.88;100455.50;4946948;28;20070;-69
2023/07/23 07:23:31;;;;;;;5.45;4.38;;;;;;;12.74;61.15;100462.22;4941861;28;20424;-69
2023/07/23 07:25:58;;;;;;;6.53;4.40;;;;;;;12.72;60.77;100452.75;4965514;28;20029;-71
2023/07/23 07:28:24;;;;;;;9.25;4.70;;;;;;;12.67;61.07;100453.84;4951452;28;20043;-72
2023/07/23 07:30:50;;;;;;;8.73;4.95;;;;;;;12.75;60.95;100447.34;4950746;28;20045;-71
2023/07/23 07:33:15;;;;;;;10.13;4.90;;;;;;;12.66;61.37;100446.88;4957716;28;20085;-69
2023/07/23 07:35:43;;;;;;;8.52;4.68;;;;;;;13.15;60.93;100451.16;4968614;28;20509;-69
2023/07/23 07:38:09;;;;;;;10.55;4.57;;;;;;;13.23;60.30;100448.13;4964788;28;20049;-71
2023/07/23 07:40:41;;;;;;;10.60;5.40;;;;;;;13.14;59.89;100444.25;4964637;28;20037;-70
2023/07/23 07:43:06;;;;;;;9.45;5.10;;;;;;;13.23;60.16;100445.50;4956552;28;20501;-68
2023/07/23 07:45:34;;;;;;;8.82;5.45;;;;;;;13.05;60.08;100434.28;4930136;28;20730;-69
2023/07/23 07:47:59;;;;;;;9.15;5.00;;;;;;;13.06;60.16;100441.19;4947696;28;20039;-69
2023/07/23 07:50:25;;;;;;;6.88;4.82;;;;;;;13.28;60.26;100440.81;4945246;28;20101;-70
2023/07/23 07:52:50;;;;;;;6.80;4.88;;;;;;;13.27;60.14;100444.34;4943075;28;20043;-71
2023/07/23 07:55:16;;;;;;;10.70;4.45;;;;;;;13.47;59.54;100440.56;4959951;28;20062;-71
2023/07/23 07:57:42;;;;;;;10.75;5.88;;;;;;;13.55;59.51;100432.25;4947385;28;20050;-70
2023/07/23 08:00:08;;;;;;;11.23;4.75;;;;;;;13.23;59.73;100435.00;4949924;28;20042;-69
2023/07/23 08:02:36;;;;;;;8.00;5.18;;;;;;;13.38;60.28;100430.59;4947783;28;20042;-69
2023/07/23 08:05:07;;;;;;;12.45;4.97;;;;;;;13.41;59.99;100436.53;4966967;28;20026;-71
2023/07/23 08:07:34;;;;;;;9.77;5.38;;;;;;;13.56;60.03;100439.16;4961372;28;20093;-71
2023/07/23 08:10:02;;;;;;;9.07;5.32;;;;;;;13.16;60.56;100436.25;4983036;28;20045;-69
2023/07/23 08:12:28;;;;;;;7.82;4.97;;;;;;;13.42;59.91;100432.97;4961004;28;20042;-69
2023/07/23 08:14:55;;;;;;;10.43;5.82;;;;;;;13.48;59.76;100432.59;4979954;28;20111;-69
2023/07/23 08:17:23;;;;;;;9.73;5.55;;;;;;;13.31;60.04;100424.88;4962873;28;20114;-69
2023/07/23 08:19:50;;;;;;;8.70;4.68;;;;;;;13.10;60.49;100419.09;4948335;28;20386;-70
2023/07/23 08:22:21;;;;;;;7.53;5.03;;;;;;;13.22;60.22;100420.16;4977669;28;20042;-69
2023/07/23 08:24:47;;;;;;;9.65;6.03;;;;;;;13.32;60.03;100427.41;4979405;28;20370;-69
2023/07/23 08:27:17;;;;;;;10.13;5.85;;;;;;;13.32;59.88;100416.91;4962419;28;21612;-69
2023/07/23 08:29:45;;;;;;;9.95;5.13;;;;;;;12.82;60.71;100417.22;4946074;28;20486;-69
2023/07/23 08:32:16;;;;;;;10.30;4.88;;;;;;;13.24;60.10;100419.13;4935969;28;20038;-69
2023/07/23 08:34:43;;;;;;;11.82;5.70;;;;;;;13.24;59.74;100424.38;4937588;28;20030;-69
2023/07/23 08:37:10;;;;;;;10.13;6.65;;;;;;;13.23;59.92;100417.47;4938307;28;20097;-69
2023/07/23 08:39:37;;;;;;;9.85;6.25;;;;;;;13.44;60.31;100420.59;4945852;28;20023;-69
2023/07/23 08:42:17;;;;;;;12.43;6.68;;;;;;;13.38;60.46;100420.09;4966380;28;20040;-70
2023/07/23 08:45:09;;;;;;;11.35;6.13;;;;;;;13.51;59.95;100423.69;4960950;28;20719;-69
2023/07/23 08:47:37;;;;;;;;;;;;;;;13.75;59.62;100423.22;4927719;28;20916;-69
2023/07/23 08:50:06;;;;;;;15.10;5.90;;;;;;;13.57;59.48;100420.75;4982404;28;20304;-69
2023/07/23 08:52:35;;;;;;;9.18;5.35;;;;;;;13.58;59.53;100416.31;4960789;28;20170;-69
2023/07/23 08:55:01;;;;;;;15.40;7.55;;;;;;;13.56;59.89;100423.41;4946764;28;20162;-69
2023/07/23 08:57:28;;;;;;;10.02;5.82;;;;;;;13.56;59.97;100420.78;4930514;28;20051;-68
2023/07/23 08:59:57;;;;;;;10.75;5.78;;;;;;;13.33;60.73;100423.84;4947366;28;20041;-69
2023/07/23 09:02:27;;;;;;;9.88;5.80;;;;;;;13.53;60.26;100421.81;4943822;28;20629;-69
2023/07/23 09:04:53;;;;;;;10.23;5.82;;;;;;;13.75;59.63;100424.03;4942597;28;20875;-69
2023/07/23 09:07:19;;;;;;;17.13;8.07;;;;;;;13.92;59.94;100415.97;4923329;28;20049;-71
2023/07/23 09:09:48;;;;;;;9.70;6.15;;;;;;;13.81;59.71;100423.69;4933803;28;20046;-70
2023/07/23 09:12:13;;;;;;;12.02;6.68;;;;;;;13.69;60.14;100421.78;4964563;28;20073;-71
2023/07/23 09:14:46;;;;;;;12.23;7.07;;;;;;;13.91;60.20;100419.53;4964310;28;20034;-68
2023/07/23 09:17:21;;;;;;;12.75;6.28;;;;;;;13.64;60.49;100415.97;4973925;28;20058;-70
2023/07/23 09:19:48;;;;;;;13.25;7.00;;;;;;;13.79;60.18;100419.47;4963692;28;20038;-69
2023/07/23 09:22:17;;;;;;;11.38;6.70;;;;;;;14.07;59.50;100413.34;4964878;28;20074;-69
2023/07/23 09:24:43;;;;;;;13.52;6.30;;;;;;;14.09;59.54;100416.72;4966909;28;20138;-69
2023/07/23 09:27:13;;;;;;;9.52;6.07;;;;;;;14.20;59.06;100419.50;4967850;28;20050;-69
2023/07/23 09:29:43;;;;;;;11.50;5.65;;;;;;;14.12;59.22;100414.75;4963227;28;20046;-70
2023/07/23 09:32:25;;;;;;;12.85;6.35;;;;;;;13.68;60.68;100423.56;4967073;28;20305;-69
2023/07/23 09:34:50;;;;;;;9.35;6.00;;;;;;;13.85;60.77;100425.19;4951304;28;20034;-70
2023/07/23 09:37:17;;;;;;;15.35;6.00;;;;;;;13.90;60.63;100427.53;4968233;28;20046;-70
2023/07/23 09:39:43;;;;;;;10.63;5.85;;;;;;;13.80;60.94;100427.22;4965987;28;20442;-70
2023/07/23 09:42:08;;;;;;;13.35;6.20;;;;;;;13.84;60.54;100431.34;4971143;28;20041;-71
2023/07/23 09:44:38;;;;;;;11.10;7.40;;;;;;;13.92;60.58;100431.75;4966762;28;20930;-70
2023/07/23 09:47:04;;;;;;;10.55;6.80;;;;;;;13.51;61.46;100437.66;4960547;28;20046;-70
2023/07/23 09:49:30;;;;;;;10.95;6.97;;;;;;;13.53;61.97;100430.53;4950265;28;20516;-70
2023/07/23 09:51:56;;;;;;;12.18;6.32;;;;;;;13.98;60.74;100427.03;4969423;28;20061;-69
2023/07/23 09:54:22;;;;;;;10.98;5.85;;;;;;;14.20;60.17;100434.44;4972493;28;21524;-70
2023/07/23 09:56:50;;;;;;;12.48;6.18;;;;;;;13.68;61.13;100438.50;4967718;28;20237;-70
2023/07/23 09:59:17;;;;;;;10.38;5.18;;;;;;;13.88;61.06;100439.91;4969190;28;20173;-70
2023/07/23 10:01:46;;;;;;;8.60;5.35;;;;;;;13.61;61.83;100430.13;4966759;28;20030;-70
2023/07/23 10:04:13;;;;;;;8.98;4.75;;;;;;;13.52;61.58;100439.38;4970334;28;20488;-70
2023/07/23 10:06:39;;;;;;;8.15;4.50;;;;;;;13.91;60.72;100444.97;4965012;28;20313;-71
2023/07/23 10:09:07;;;;;;;7.88;3.85;;;;;;;13.44;62.19;100440.75;4971867;28;20062;-69
2023/07/23 10:11:33;;;;;;;9.30;5.88;;;;;;;13.74;60.93;100448.59;4964612;28;20906;-69
2023/07/23 10:13:59;;;;;;;6.00;4.07;;;;;;;13.13;62.76;100439.06;4970637;28;20539;-70
2023/07/23 10:16:32;;;;;;;8.13;4.28;;;;;;;13.35;62.56;100442.13;4966194;28;20041;-69
2023/07/23 10:18:59;;;;;;;6.93;4.30;;;;;;;13.70;61.76;100440.06;4964815;28;20146;-69
2023/07/23 10:21:29;;;;;;;12.27;6.13;;;;;;;13.59;61.56;100433.78;4965132;28;20160;-70
2023/07/23 10:23:56;;;;;;;9.63;4.78;;;;;;;13.30;63.10;100441.56;4965947;28;20658;-69
2023/07/23 10:26:26;;;;;;;10.35;5.30;;;;;;;13.51;62.32;100432.41;4963618;28;20065;-70
2023/07/23 10:29:09;;;;;;;8.07;3.05;;;;;;;12.39;65.41;100441.38;4965691;28;20066;-69
2023/07/23 10:31:39;;;;;;;5.97;3.92;;;;;;;12.96;64.10;100433.03;4964811;28;20046;-69
2023/07/23 10:34:23;;;;;;;6.50;4.05;;;;;;;12.77;63.97;100433.22;4970743;28;20060;-70
2023/07/23 10:37:14;;;;;;;9.18;4.32;;;;;;;13.33;62.72;100426.47;4965361;28;20121;-70
2023/07/23 10:39:40;;;;;;;5.93;3.35;;;;;;;12.94;63.89;100440.13;4982283;28;20041;-70
2023/07/23 10:42:06;;;;;;;7.43;3.45;;;;;;;13.86;61.44;100434.75;4965993;28;20217;-69
2023/07/23 10:44:31;;;;;;;4.97;3.03;;;;;;;13.55;62.22;100433.09;4944801;28;20549;-71
2023/07/23 10:46:58;;;;;;;8.77;2.92;;;;;;;13.22;62.77;100436.75;4923712;28;20030;-70
2023/07/23 10:49:27;;;;;;;5.32;3.10;;;;;;;12.89;63.52;100431.66;4964465;28;20035;-69
2023/07/23 10:51:54;;;;;;;5.65;3.58;;;;;;;13.07;63.14;100432.38;4964718;28;20042;-73
2023/07/23 10:54:21;;;;;;;4.80;3.08;;;;;;;13.03;63.23;100444.84;4963993;28;20026;-69
2023/07/23 10:56:50;;;;;;;7.60;3.35;;;;;;;13.40;62.95;100434.00;4966165;28;20045;-69
2023/07/23 10:59:20;;;;;;;4.68;3.20;;;;;;;13.17;62.33;100432.72;4950358;28;20129;-69
2023/07/23 11:01:49;;;;;;;4.55;2.92;;;;;;;13.89;61.29;100431.91;4945332;28;20073;-69
2023/07/23 11:04:17;;;;;;;4.40;2.67;;;;;;;13.15;62.58;100432.78;4947004;28;20759;-69
2023/07/23 11:07:00;;;;;;;5.68;2.95;;;;;;;13.86;61.16;100426.84;4947203;28;20081;-69
2023/07/23 11:09:28;;;;;;;5.57;2.60;;;;;;;13.93;60.35;100430.78;4935632;28;20546;-69
2023/07/23 11:11:55;;;;;;;4.85;3.10;;;;;;;13.85;60.49;100440.94;4937412;28;20038;-68
2023/07/23 11:14:31;;;;;;;3.42;2.10;;;;;;;13.32;61.93;100432.66;4944835;28;20403;-68
2023/07/23 11:17:02;;;;;;;5.93;3.50;;;;;;;13.60;61.03;100432.84;4942340;28;20046;-69
2023/07/23 11:19:29;;;;;;;4.78;2.75;;;;;;;13.63;61.00;100438.75;4968965;28;20026;-68
2023/07/23 11:21:57;;;;;;;5.57;3.08;;;;;;;13.84;61.01;100436.63;4961493;28;20026;-68
2023/07/23 11:24:27;;;;;;;4.82;2.88;;;;;;;13.21;61.97;100429.00;4965869;28;20038;-68